createdAt,value
2019-03-03T00:00:41.838Z,0.00
2019-03-03T00:01:41.931Z,0.00
2019-03-03T00:02:42.023Z,0.00
2019-03-03T00:03:42.110Z,0.00
2019-03-03T00:04:42.202Z,0.00
2019-03-03T00:05:42.294Z,0.00
2019-03-03T00:06:42.381Z,0.00
2019-03-03T00:07:42.472Z,0.00
2019-03-03T00:08:42.568Z,0.00
2019-03-03T00:09:42.659Z,0.00
2019-03-03T00:10:42.762Z,0.00
2019-03-03T00:11:42.841Z,0.00
2019-03-03T00:12:42.936Z,0.00
2019-03-03T00:13:43.023Z,0.00
2019-03-03T00:14:43.112Z,0.00
2019-03-03T00:15:43.203Z,0.00
2019-03-03T00:16:43.292Z,0.00
2019-03-03T00:17:43.388Z,0.00
2019-03-03T00:18:43.557Z,0.00
2019-03-03T00:19:43.620Z,0.00
2019-03-03T00:20:43.712Z,0.00
2019-03-03T00:21:43.799Z,0.00
2019-03-03T00:22:43.893Z,0.00
2019-03-03T00:23:43.984Z,0.00
2019-03-03T00:24:44.093Z,0.00
2019-03-03T00:25:44.184Z,0.00
2019-03-03T00:26:44.277Z,0.00
2019-03-03T00:27:44.367Z,0.00
2019-03-03T00:28:44.465Z,0.00
2019-03-03T00:29:44.586Z,0.00
2019-03-03T00:30:44.687Z,0.00
2019-03-03T00:31:46.503Z,0.00
2019-03-03T00:32:44.842Z,0.00
2019-03-03T00:33:44.932Z,0.00
2019-03-03T00:34:45.021Z,0.00
2019-03-03T00:35:45.111Z,0.00
2019-03-03T00:36:45.201Z,0.00
2019-03-03T00:37:45.298Z,0.00
2019-03-03T00:38:45.523Z,0.00
2019-03-03T00:39:45.553Z,0.00
2019-03-03T00:40:45.601Z,0.00
2019-03-03T00:41:45.688Z,0.00
2019-03-03T00:42:45.780Z,0.00
2019-03-03T00:43:45.871Z,0.00
2019-03-03T00:44:46.082Z,0.00
2019-03-03T00:45:46.051Z,0.00
2019-03-03T00:46:46.146Z,0.00
2019-03-03T00:47:46.234Z,0.00
2019-03-03T00:48:46.328Z,0.00
2019-03-03T00:49:46.414Z,0.00
2019-03-03T00:50:46.504Z,0.00
2019-03-03T00:51:46.593Z,0.00
2019-03-03T00:52:46.681Z,0.00
2019-03-03T00:53:46.773Z,0.00
2019-03-03T00:54:46.864Z,0.00
2019-03-03T00:55:46.953Z,0.00
2019-03-03T00:56:47.054Z,0.00
2019-03-03T00:57:47.140Z,0.00
2019-03-03T00:58:47.230Z,0.00
2019-03-03T00:59:47.458Z,0.00
2019-03-03T01:00:47.483Z,0.00
2019-03-03T01:01:47.503Z,0.00
2019-03-03T01:02:47.615Z,0.00
2019-03-03T01:03:47.676Z,0.00
2019-03-03T01:04:47.763Z,0.00
2019-03-03T01:05:47.857Z,0.00
2019-03-03T01:06:47.948Z,0.00
2019-03-03T01:07:48.030Z,0.00
2019-03-03T01:08:48.121Z,0.00
2019-03-03T01:09:48.205Z,0.00
2019-03-03T01:10:48.293Z,0.00
2019-03-03T01:11:48.383Z,0.00
2019-03-03T01:12:48.473Z,0.00
2019-03-03T01:13:48.563Z,0.00
2019-03-03T01:14:48.656Z,0.00
2019-03-03T01:15:48.794Z,0.00
2019-03-03T01:16:48.840Z,0.00
2019-03-03T01:17:48.929Z,0.00
2019-03-03T01:18:49.017Z,0.00
2019-03-03T01:19:49.107Z,0.00
2019-03-03T01:20:49.197Z,0.00
2019-03-03T01:21:49.302Z,0.00
2019-03-03T01:22:49.539Z,0.00
2019-03-03T01:23:49.603Z,0.00
2019-03-03T01:24:49.635Z,0.00
2019-03-03T01:25:49.738Z,0.00
2019-03-03T01:28:32.388Z,0.00
2019-03-03T01:29:32.478Z,0.00
2019-03-03T01:30:32.566Z,0.00
2019-03-03T01:31:32.657Z,0.00
2019-03-03T01:32:32.744Z,0.00
2019-03-03T01:33:32.835Z,0.00
2019-03-03T01:34:32.930Z,0.00
2019-03-03T01:35:33.020Z,0.00
2019-03-03T01:36:33.135Z,0.00
2019-03-03T01:37:33.226Z,0.00
2019-03-03T01:38:33.333Z,0.00
2019-03-03T01:39:33.406Z,0.00
2019-03-03T01:40:33.478Z,0.00
2019-03-03T01:41:33.627Z,0.00
2019-03-03T01:42:33.670Z,0.00
2019-03-03T01:43:33.761Z,0.00
2019-03-03T01:44:33.853Z,0.00
2019-03-03T01:45:33.952Z,0.00
2019-03-03T01:46:34.041Z,0.00
2019-03-03T01:47:34.133Z,0.00
2019-03-03T01:48:34.223Z,0.00
2019-03-03T01:49:34.320Z,0.00
2019-03-03T01:50:34.412Z,0.00
2019-03-03T01:51:34.502Z,0.00
2019-03-03T01:52:34.591Z,0.00
2019-03-03T01:53:34.692Z,0.00
2019-03-03T01:54:34.767Z,0.00
2019-03-03T01:55:34.859Z,0.00
2019-03-03T01:56:34.949Z,0.00
2019-03-03T01:57:35.038Z,0.00
2019-03-03T01:58:35.132Z,0.00
2019-03-03T01:59:35.225Z,0.00
2019-03-03T02:00:35.324Z,0.00
2019-03-03T02:01:35.419Z,0.00
2019-03-03T02:02:35.512Z,0.00
2019-03-03T02:03:35.606Z,0.00
2019-03-03T02:04:35.700Z,0.00
2019-03-03T02:05:35.790Z,0.00
2019-03-03T02:06:35.881Z,0.00
2019-03-03T02:07:35.969Z,0.00
2019-03-03T02:08:36.059Z,0.00
2019-03-03T02:09:36.150Z,0.00
2019-03-03T02:10:36.242Z,0.00
2019-03-03T02:11:36.330Z,0.00
2019-03-03T02:12:36.419Z,0.00
2019-03-03T02:13:36.506Z,0.00
2019-03-03T02:14:36.595Z,0.00
2019-03-03T02:15:36.690Z,0.00
2019-03-03T02:16:36.778Z,0.00
2019-03-03T02:17:36.866Z,0.00
2019-03-03T02:18:36.945Z,0.00
2019-03-03T02:21:19.610Z,0.00
2019-03-03T02:22:19.696Z,0.00
2019-03-03T02:23:19.787Z,0.00
2019-03-03T02:24:19.875Z,0.00
2019-03-03T02:25:19.974Z,0.00
2019-03-03T02:26:20.054Z,0.00
2019-03-03T02:27:20.145Z,0.00
2019-03-03T02:28:20.231Z,0.00
2019-03-03T02:29:20.324Z,0.00
2019-03-03T02:30:20.427Z,0.00
2019-03-03T02:31:20.502Z,0.00
2019-03-03T02:32:20.593Z,0.00
2019-03-03T02:33:20.684Z,0.00
2019-03-03T02:34:20.775Z,0.00
2019-03-03T02:35:20.876Z,0.00
2019-03-03T02:36:21.033Z,0.00
2019-03-03T02:37:21.044Z,0.00
2019-03-03T02:38:21.133Z,0.00
2019-03-03T02:39:21.243Z,0.00
2019-03-03T02:40:21.313Z,0.00
2019-03-03T02:41:21.514Z,0.00
2019-03-03T02:42:21.478Z,0.00
2019-03-03T02:43:21.578Z,0.00
2019-03-03T02:44:21.670Z,0.00
2019-03-03T02:45:21.758Z,0.00
2019-03-03T02:46:21.847Z,0.00
2019-03-03T02:47:21.938Z,0.00
2019-03-03T02:48:22.028Z,0.00
2019-03-03T02:49:22.121Z,0.00
2019-03-03T02:50:22.211Z,0.00
2019-03-03T02:51:22.299Z,0.00
2019-03-03T02:52:22.391Z,0.00
2019-03-03T02:53:22.481Z,0.00
2019-03-03T02:54:22.570Z,0.00
2019-03-03T02:55:22.659Z,0.00
2019-03-03T02:56:22.749Z,0.00
2019-03-03T02:57:22.844Z,0.00
2019-03-03T02:58:22.943Z,0.00
2019-03-03T02:59:23.038Z,0.00
2019-03-03T03:00:23.116Z,0.00
2019-03-03T03:01:23.206Z,0.00
2019-03-03T03:02:23.292Z,0.00
2019-03-03T03:03:23.554Z,0.00
2019-03-03T03:04:23.508Z,0.00
2019-03-03T03:05:23.595Z,0.00
2019-03-03T03:06:23.692Z,0.00
2019-03-03T03:07:23.791Z,0.00
2019-03-03T03:08:23.878Z,0.00
2019-03-03T03:09:23.970Z,0.00
2019-03-03T03:10:24.073Z,0.00
2019-03-03T03:11:24.150Z,0.00
2019-03-03T03:12:24.254Z,0.00
2019-03-03T03:13:24.332Z,0.00
2019-03-03T03:14:24.420Z,0.00
2019-03-03T03:15:24.506Z,0.00
2019-03-03T03:16:24.599Z,0.00
2019-03-03T03:17:24.691Z,0.00
2019-03-03T03:18:24.783Z,0.00
2019-03-03T03:19:24.870Z,0.00
2019-03-03T03:20:24.966Z,0.00
2019-03-03T03:21:25.061Z,0.00
2019-03-03T03:22:25.146Z,0.00
2019-03-03T03:23:25.248Z,0.00
2019-03-03T03:24:25.326Z,0.00
2019-03-03T03:25:25.524Z,0.00
2019-03-03T03:26:25.679Z,0.00
2019-03-03T03:29:08.061Z,0.00
2019-03-03T03:30:08.153Z,0.00
2019-03-03T03:31:08.241Z,0.00
2019-03-03T03:32:08.566Z,0.00
2019-03-03T03:33:08.377Z,0.00
2019-03-03T03:34:08.474Z,0.00
2019-03-03T03:35:08.539Z,0.00
2019-03-03T03:36:08.641Z,0.00
2019-03-03T03:37:08.726Z,0.00
2019-03-03T03:38:08.819Z,0.00
2019-03-03T03:39:08.907Z,0.00
2019-03-03T03:40:09.001Z,0.00
2019-03-03T03:41:09.087Z,0.00
2019-03-03T03:42:09.178Z,0.00
2019-03-03T03:43:09.268Z,0.00
2019-03-03T03:44:09.353Z,0.00
2019-03-03T03:45:09.498Z,0.00
2019-03-03T03:46:09.587Z,0.00
2019-03-03T03:47:09.677Z,0.00
2019-03-03T03:48:09.767Z,0.00
2019-03-03T03:49:09.858Z,0.00
2019-03-03T03:50:09.945Z,0.00
2019-03-03T03:51:10.035Z,0.00
2019-03-03T03:52:10.128Z,0.00
2019-03-03T03:53:10.217Z,0.00
2019-03-03T03:54:10.309Z,0.00
2019-03-03T03:55:10.404Z,0.00
2019-03-03T03:56:10.492Z,0.00
2019-03-03T03:57:10.579Z,0.00
2019-03-03T03:58:10.668Z,0.00
2019-03-03T03:59:10.770Z,0.00
2019-03-03T04:00:10.852Z,0.00
2019-03-03T04:01:10.941Z,0.00
2019-03-03T04:02:11.036Z,0.00
2019-03-03T04:03:11.123Z,0.00
2019-03-03T04:04:11.215Z,0.00
2019-03-03T04:05:11.298Z,0.00
2019-03-03T04:06:11.406Z,0.00
2019-03-03T04:07:11.574Z,0.00
2019-03-03T04:08:11.611Z,0.00
2019-03-03T04:10:54.698Z,0.00
2019-03-03T04:11:54.411Z,0.00
2019-03-03T04:12:54.504Z,0.00
2019-03-03T04:13:54.604Z,0.00
2019-03-03T04:14:54.696Z,0.00
2019-03-03T04:15:54.792Z,0.00
2019-03-03T04:16:54.877Z,0.00
2019-03-03T04:17:54.972Z,0.00
2019-03-03T04:18:55.057Z,0.00
2019-03-03T04:19:55.148Z,0.00
2019-03-03T04:20:55.235Z,0.00
2019-03-03T04:21:55.323Z,0.00
2019-03-03T04:22:55.580Z,0.00
2019-03-03T04:23:55.460Z,0.00
2019-03-03T04:24:55.578Z,0.00
2019-03-03T04:25:55.684Z,0.00
2019-03-03T04:26:55.776Z,0.00
2019-03-03T04:27:55.865Z,0.00
2019-03-03T04:28:55.955Z,0.00
2019-03-03T04:29:56.044Z,0.00
2019-03-03T04:30:56.133Z,0.00
2019-03-03T04:31:56.225Z,0.00
2019-03-03T04:32:56.332Z,0.00
2019-03-03T04:33:56.437Z,0.00
2019-03-03T04:34:56.514Z,0.00
2019-03-03T04:35:56.600Z,0.00
2019-03-03T04:36:56.696Z,0.00
2019-03-03T04:37:56.788Z,0.00
2019-03-03T04:38:56.881Z,0.00
2019-03-03T04:39:56.971Z,0.00
2019-03-03T04:40:57.057Z,0.00
2019-03-03T04:41:57.148Z,0.00
2019-03-03T04:42:57.236Z,0.00
2019-03-03T04:43:57.326Z,0.00
2019-03-03T04:44:57.533Z,0.00
2019-03-03T04:45:57.557Z,0.00
2019-03-03T04:46:57.574Z,0.00
2019-03-03T04:47:57.663Z,0.00
2019-03-03T04:48:57.795Z,0.00
2019-03-03T04:49:57.847Z,0.00
2019-03-03T04:50:57.939Z,0.00
2019-03-03T04:51:58.030Z,0.00
2019-03-03T04:52:58.117Z,0.00
2019-03-03T04:53:58.207Z,0.00
2019-03-03T04:54:58.296Z,0.00
2019-03-03T04:55:58.389Z,0.00
2019-03-03T04:56:58.479Z,0.00
2019-03-03T04:57:58.574Z,0.00
2019-03-03T04:58:58.664Z,0.00
2019-03-03T04:59:58.755Z,0.00
2019-03-03T05:00:58.843Z,0.00
2019-03-03T05:01:58.932Z,0.00
2019-03-03T05:02:59.036Z,0.00
2019-03-03T05:03:59.125Z,0.00
2019-03-03T05:04:59.209Z,0.00
2019-03-03T05:05:59.298Z,0.00
2019-03-03T05:06:59.539Z,0.00
2019-03-03T05:07:59.488Z,0.00
2019-03-03T05:08:59.556Z,0.00
2019-03-03T05:09:59.672Z,0.00
2019-03-03T05:10:59.725Z,0.00
2019-03-03T05:11:59.820Z,0.00
2019-03-03T05:12:59.911Z,0.00
2019-03-03T05:14:00.002Z,0.00
2019-03-03T05:15:00.280Z,0.00
2019-03-03T05:16:00.185Z,0.00
2019-03-03T05:17:00.278Z,0.00
2019-03-03T05:18:00.363Z,0.00
2019-03-03T05:19:00.457Z,0.00
2019-03-03T05:20:00.569Z,0.00
2019-03-03T05:21:00.640Z,0.00
2019-03-03T05:22:00.730Z,0.00
2019-03-03T05:23:00.816Z,0.00
2019-03-03T05:24:00.908Z,0.00
2019-03-03T05:25:00.999Z,0.00
2019-03-03T05:26:01.089Z,0.00
2019-03-03T05:27:01.180Z,0.00
2019-03-03T05:28:01.268Z,0.00
2019-03-03T05:29:01.516Z,0.00
2019-03-03T05:30:01.447Z,0.00
2019-03-03T05:31:01.573Z,0.00
2019-03-03T05:32:01.663Z,0.00
2019-03-03T05:33:01.751Z,0.00
2019-03-03T05:34:01.844Z,0.00
2019-03-03T05:35:01.939Z,0.00
2019-03-03T05:36:02.027Z,0.00
2019-03-03T05:37:02.114Z,0.00
2019-03-03T05:38:02.202Z,0.00
2019-03-03T05:39:02.294Z,0.00
2019-03-03T05:40:02.381Z,0.00
2019-03-03T05:41:02.470Z,4.00
2019-03-03T05:42:02.561Z,4.00
2019-03-03T05:43:02.649Z,4.00
2019-03-03T05:44:02.741Z,4.00
2019-03-03T05:45:02.830Z,4.00
2019-03-03T05:46:02.917Z,4.00
2019-03-03T05:47:03.007Z,4.00
2019-03-03T05:48:03.098Z,8.00
2019-03-03T05:49:03.184Z,8.00
2019-03-03T05:50:03.271Z,8.00
2019-03-03T05:51:03.487Z,4.00
2019-03-03T05:52:03.507Z,4.00
2019-03-03T05:53:03.677Z,8.00
2019-03-03T05:54:03.768Z,8.00
2019-03-03T05:55:03.854Z,12.00
2019-03-03T05:56:03.970Z,12.00
2019-03-03T05:57:04.059Z,12.00
2019-03-03T05:58:04.289Z,20.00
2019-03-03T05:59:04.326Z,24.00
2019-03-03T06:00:04.357Z,24.00
2019-03-03T06:01:04.443Z,32.00
2019-03-03T06:02:04.703Z,32.00
2019-03-03T06:03:04.614Z,36.00
2019-03-03T06:04:04.699Z,40.00
2019-03-03T06:05:04.788Z,40.00
2019-03-03T06:06:04.882Z,48.00
2019-03-03T06:07:05.971Z,56.00
2019-03-03T06:08:05.101Z,64.00
2019-03-03T06:09:05.193Z,72.00
2019-03-03T06:10:05.284Z,80.00
2019-03-03T06:11:05.387Z,88.00
2019-03-03T06:12:05.763Z,92.00
2019-03-03T06:13:05.607Z,100.00
2019-03-03T06:14:05.722Z,108.00
2019-03-03T06:15:05.751Z,116.00
2019-03-03T06:16:05.835Z,120.00
2019-03-03T06:17:06.052Z,128.00
2019-03-03T06:19:49.160Z,140.00
2019-03-03T06:20:48.872Z,148.00
2019-03-03T06:21:48.964Z,152.00
2019-03-03T06:22:49.046Z,164.00
2019-03-03T06:23:49.142Z,192.00
2019-03-03T06:24:49.235Z,212.00
2019-03-03T06:25:49.324Z,216.00
2019-03-03T06:26:49.428Z,224.00
2019-03-03T06:27:49.547Z,232.00
2019-03-03T06:28:49.581Z,244.00
2019-03-03T06:29:49.701Z,248.00
2019-03-03T06:30:49.949Z,260.00
2019-03-03T06:31:50.023Z,252.00
2019-03-03T06:32:49.995Z,248.00
2019-03-03T06:33:50.146Z,252.00
2019-03-03T06:34:50.112Z,260.00
2019-03-03T06:35:50.205Z,256.00
2019-03-03T06:36:50.308Z,252.00
2019-03-03T06:37:50.391Z,244.00
2019-03-03T06:38:50.479Z,248.00
2019-03-03T06:39:50.572Z,252.00
2019-03-03T06:40:50.660Z,260.00
2019-03-03T06:41:50.749Z,268.00
2019-03-03T06:42:50.838Z,268.00
2019-03-03T06:43:50.927Z,268.00
2019-03-03T06:44:51.021Z,272.00
2019-03-03T06:45:51.111Z,284.00
2019-03-03T06:46:51.202Z,296.00
2019-03-03T06:47:51.291Z,300.00
2019-03-03T06:48:51.541Z,292.00
2019-03-03T06:49:51.549Z,272.00
2019-03-03T06:50:52.952Z,256.00
2019-03-03T06:51:51.693Z,248.00
2019-03-03T06:52:51.783Z,268.00
2019-03-03T06:53:51.874Z,300.00
2019-03-03T06:54:51.964Z,304.00
2019-03-03T06:55:52.056Z,320.00
2019-03-03T06:56:52.144Z,336.00
2019-03-03T06:57:52.234Z,340.00
2019-03-03T06:58:52.324Z,364.00
2019-03-03T06:59:52.425Z,372.00
2019-03-03T07:00:52.505Z,372.00
2019-03-03T07:01:52.604Z,404.00
2019-03-03T07:02:52.696Z,408.00
2019-03-03T07:04:01.431Z,396.00
2019-03-03T07:04:52.919Z,408.00
2019-03-03T07:05:52.992Z,452.00
2019-03-03T07:06:53.082Z,464.00
2019-03-03T07:07:53.174Z,440.00
2019-03-03T07:08:53.264Z,420.00
2019-03-03T07:09:53.356Z,396.00
2019-03-03T07:10:53.444Z,384.00
2019-03-03T07:11:53.536Z,368.00
2019-03-03T07:12:53.629Z,348.00
2019-03-03T07:13:53.720Z,328.00
2019-03-03T07:14:53.811Z,340.00
2019-03-03T07:15:53.902Z,332.00
2019-03-03T07:16:53.993Z,332.00
2019-03-03T07:17:54.082Z,356.00
2019-03-03T07:18:54.177Z,348.00
2019-03-03T07:19:54.273Z,344.00
2019-03-03T07:20:54.351Z,352.00
2019-03-03T07:21:54.443Z,360.00
2019-03-03T07:22:54.532Z,372.00
2019-03-03T07:23:54.622Z,376.00
2019-03-03T07:24:54.709Z,392.00
2019-03-03T07:25:54.799Z,416.00
2019-03-03T07:26:54.885Z,448.00
2019-03-03T07:27:55.017Z,448.00
2019-03-03T07:28:55.074Z,484.00
2019-03-03T07:29:55.167Z,500.00
2019-03-03T07:30:55.256Z,528.00
2019-03-03T07:31:55.347Z,520.00
2019-03-03T07:32:55.438Z,524.00
2019-03-03T07:33:55.526Z,508.00
2019-03-03T07:34:55.612Z,528.00
2019-03-03T07:35:55.701Z,588.00
2019-03-03T07:36:55.791Z,620.00
2019-03-03T07:37:55.879Z,648.00
2019-03-03T07:38:55.971Z,612.00
2019-03-03T07:39:56.060Z,604.00
2019-03-03T07:40:56.153Z,624.00
2019-03-03T07:41:56.240Z,668.00
2019-03-03T07:42:56.331Z,748.00
2019-03-03T07:43:56.424Z,692.00
2019-03-03T07:44:56.513Z,648.00
2019-03-03T07:45:56.603Z,624.00
2019-03-03T07:46:56.711Z,596.00
2019-03-03T07:47:56.801Z,580.00
2019-03-03T07:48:56.893Z,532.00
2019-03-03T07:49:56.982Z,524.00
2019-03-03T07:50:57.072Z,544.00
2019-03-03T07:51:57.163Z,592.00
2019-03-03T07:52:57.261Z,632.00
2019-03-03T07:53:57.336Z,704.00
2019-03-03T07:54:57.435Z,728.00
2019-03-03T07:55:57.524Z,652.00
2019-03-03T07:56:57.616Z,624.00
2019-03-03T07:57:57.705Z,580.00
2019-03-03T07:58:57.796Z,532.00
2019-03-03T07:59:57.889Z,540.00
2019-03-03T08:00:57.981Z,572.00
2019-03-03T08:01:58.072Z,608.00
2019-03-03T08:02:58.163Z,656.00
2019-03-03T08:03:58.253Z,724.00
2019-03-03T08:04:58.344Z,748.00
2019-03-03T08:05:58.436Z,748.00
2019-03-03T08:06:58.529Z,776.00
2019-03-03T08:07:58.616Z,824.00
2019-03-03T08:08:58.713Z,796.00
2019-03-03T08:09:58.797Z,812.00
2019-03-03T08:10:58.887Z,896.00
2019-03-03T08:11:58.978Z,936.00
2019-03-03T08:13:08.731Z,940.00
2019-03-03T08:13:59.160Z,988.00
2019-03-03T08:14:59.251Z,1016.00
2019-03-03T08:15:59.339Z,1132.00
2019-03-03T08:16:59.433Z,1176.00
2019-03-03T08:17:59.521Z,1072.00
2019-03-03T08:18:59.618Z,1000.00
2019-03-03T08:19:59.704Z,964.00
2019-03-03T08:20:59.793Z,956.00
2019-03-03T08:21:59.883Z,948.00
2019-03-03T08:22:59.995Z,980.00
2019-03-03T08:24:00.082Z,932.00
2019-03-03T08:25:00.332Z,928.00
2019-03-03T08:26:00.280Z,972.00
2019-03-03T08:27:00.526Z,964.00
2019-03-03T08:28:00.476Z,1048.00
2019-03-03T08:29:01.159Z,1080.00
2019-03-03T08:30:00.602Z,1104.00
2019-03-03T08:31:00.695Z,1128.00
2019-03-03T08:32:00.788Z,1124.00
2019-03-03T08:33:00.875Z,1148.00
2019-03-03T08:34:00.976Z,1216.00
2019-03-03T08:35:01.060Z,1208.00
2019-03-03T08:36:01.153Z,1172.00
2019-03-03T08:37:01.242Z,1160.00
2019-03-03T08:38:01.331Z,1204.00
2019-03-03T08:39:01.425Z,1200.00
2019-03-03T08:40:01.539Z,1180.00
2019-03-03T08:41:01.609Z,1096.00
2019-03-03T08:42:01.793Z,1124.00
2019-03-03T08:43:04.048Z,1164.00
2019-03-03T08:44:01.987Z,1152.00
2019-03-03T08:45:02.062Z,1164.00
2019-03-03T08:46:02.113Z,1212.00
2019-03-03T08:47:02.238Z,1272.00
2019-03-03T08:48:02.295Z,1432.00
2019-03-03T08:49:02.383Z,1524.00
2019-03-03T08:50:02.479Z,1520.00
2019-03-03T08:51:02.569Z,1448.00
2019-03-03T08:52:02.661Z,1484.00
2019-03-03T08:53:02.751Z,1384.00
2019-03-03T08:54:02.844Z,1276.00
2019-03-03T08:55:02.937Z,1172.00
2019-03-03T08:56:03.029Z,1204.00
2019-03-03T08:57:03.147Z,1164.00
2019-03-03T08:58:03.247Z,1172.00
2019-03-03T08:59:03.342Z,1136.00
2019-03-03T09:00:03.435Z,1060.00
2019-03-03T09:01:03.527Z,1076.00
2019-03-03T09:02:03.615Z,1172.00
2019-03-03T09:03:03.759Z,1224.00
2019-03-03T09:04:04.012Z,1236.00
2019-03-03T09:06:48.030Z,1236.00
2019-03-03T09:07:48.037Z,1224.00
2019-03-03T09:08:48.093Z,1124.00
2019-03-03T09:09:48.379Z,1064.00
2019-03-03T09:10:48.424Z,964.00
2019-03-03T09:11:48.311Z,880.00
2019-03-03T09:12:48.416Z,840.00
2019-03-03T09:13:48.501Z,816.00
2019-03-03T09:14:48.594Z,800.00
2019-03-03T09:15:48.689Z,820.00
2019-03-03T09:16:48.777Z,844.00
2019-03-03T09:17:48.870Z,940.00
2019-03-03T09:18:48.964Z,1008.00
2019-03-03T09:19:49.058Z,1180.00
2019-03-03T09:20:49.140Z,1224.00
2019-03-03T09:21:49.245Z,1396.00
2019-03-03T09:22:49.325Z,1592.00
2019-03-03T09:23:49.417Z,1644.00
2019-03-03T09:24:49.510Z,1648.00
2019-03-03T09:25:49.598Z,1456.00
2019-03-03T09:26:49.778Z,1360.00
2019-03-03T09:27:49.829Z,1300.00
2019-03-03T09:28:49.928Z,1260.00
2019-03-03T09:29:50.023Z,1304.00
2019-03-03T09:30:50.117Z,1348.00
2019-03-03T09:31:50.208Z,1484.00
2019-03-03T09:32:50.299Z,1404.00
2019-03-03T09:33:50.404Z,1412.00
2019-03-03T09:34:50.517Z,1320.00
2019-03-03T09:35:50.616Z,1260.00
2019-03-03T09:36:50.710Z,1168.00
2019-03-03T09:37:50.796Z,1144.00
2019-03-03T09:38:50.887Z,1224.00
2019-03-03T09:39:50.983Z,1448.00
2019-03-03T09:40:51.081Z,1444.00
2019-03-03T09:41:51.163Z,1352.00
2019-03-03T09:42:51.287Z,1308.00
2019-03-03T09:43:51.377Z,1212.00
2019-03-03T09:44:51.469Z,1200.00
2019-03-03T09:45:51.567Z,1160.00
2019-03-03T09:46:51.664Z,1148.00
2019-03-03T09:47:51.784Z,1164.00
2019-03-03T09:48:51.905Z,1264.00
2019-03-03T09:49:51.984Z,1308.00
2019-03-03T09:50:52.074Z,1340.00
2019-03-03T09:51:52.166Z,1240.00
2019-03-03T09:52:52.260Z,1212.00
2019-03-03T09:53:52.352Z,1264.00
2019-03-03T09:54:52.447Z,1380.00
2019-03-03T09:55:52.540Z,1384.00
2019-03-03T09:56:52.643Z,1396.00
2019-03-03T09:57:52.737Z,1508.00
2019-03-03T09:58:52.825Z,1444.00
2019-03-03T09:59:52.924Z,1384.00
2019-03-03T10:00:53.018Z,1288.00
2019-03-03T10:01:53.124Z,1320.00
2019-03-03T10:02:53.214Z,1500.00
2019-03-03T10:03:53.287Z,1596.00
2019-03-03T10:04:53.366Z,1692.00
2019-03-03T10:05:53.467Z,1548.00
2019-03-03T10:06:53.544Z,1344.00
2019-03-03T10:07:53.636Z,1264.00
2019-03-03T10:08:53.848Z,1292.00
2019-03-03T10:09:53.872Z,1332.00
2019-03-03T10:10:53.999Z,1272.00
2019-03-03T10:11:54.105Z,1244.00
2019-03-03T10:12:54.105Z,1160.00
2019-03-03T10:13:54.219Z,1152.00
2019-03-03T10:14:54.280Z,1188.00
2019-03-03T10:15:54.389Z,1116.00
2019-03-03T10:16:54.409Z,1108.00
2019-03-03T10:17:54.585Z,1124.00
2019-03-03T10:18:54.583Z,1156.00
2019-03-03T10:19:54.749Z,1212.00
2019-03-03T10:20:54.769Z,1260.00
2019-03-03T10:21:54.867Z,1376.00
2019-03-03T10:22:54.922Z,1452.00
2019-03-03T10:23:55.048Z,1560.00
2019-03-03T10:24:55.181Z,1628.00
2019-03-03T10:25:55.157Z,1696.00
2019-03-03T10:26:55.336Z,1912.00
2019-03-03T10:27:55.342Z,2208.00
2019-03-03T10:28:55.496Z,2352.00
2019-03-03T10:29:55.571Z,2468.00
2019-03-03T10:30:55.679Z,2740.00
2019-03-03T10:31:55.792Z,2948.00
2019-03-03T10:32:55.946Z,3184.00
2019-03-03T10:33:55.996Z,3008.00
2019-03-03T10:34:56.021Z,2468.00
2019-03-03T10:35:56.072Z,2180.00
2019-03-03T10:36:56.201Z,2200.00
2019-03-03T10:37:56.264Z,2292.00
2019-03-03T10:38:56.357Z,2336.00
2019-03-03T10:39:56.398Z,2256.00
2019-03-03T10:40:56.587Z,2092.00
2019-03-03T10:41:56.611Z,2028.00
2019-03-03T10:42:56.717Z,2080.00
2019-03-03T10:43:56.766Z,2068.00
2019-03-03T10:44:56.847Z,2100.00
2019-03-03T10:45:57.026Z,2232.00
2019-03-03T10:46:57.097Z,2496.00
2019-03-03T10:47:57.071Z,2744.00
2019-03-03T10:48:57.244Z,2804.00
2019-03-03T10:49:57.282Z,2660.00
2019-03-03T10:50:57.463Z,2516.00
2019-03-03T10:51:57.473Z,2448.00
2019-03-03T10:52:57.517Z,2444.00
2019-03-03T10:53:57.618Z,2440.00
2019-03-03T10:54:57.891Z,2276.00
2019-03-03T10:55:57.931Z,2336.00
2019-03-03T10:56:57.907Z,2760.00
2019-03-03T10:57:58.008Z,2864.00
2019-03-03T10:58:58.141Z,2872.00
2019-03-03T10:59:58.195Z,2528.00
2019-03-03T11:00:58.261Z,2788.00
2019-03-03T11:01:58.296Z,2820.00
2019-03-03T11:02:58.384Z,2624.00
2019-03-03T11:03:58.555Z,2696.00
2019-03-03T11:04:58.665Z,2556.00
2019-03-03T11:05:58.646Z,2556.00
2019-03-03T11:06:58.769Z,2564.00
2019-03-03T11:07:58.842Z,2564.00
2019-03-03T11:08:58.905Z,2464.00
2019-03-03T11:09:59.022Z,2348.00
2019-03-03T11:10:59.120Z,2268.00
2019-03-03T11:11:59.270Z,2212.00
2019-03-03T11:12:59.291Z,2068.00
2019-03-03T11:13:59.400Z,1964.00
2019-03-03T11:14:59.387Z,1860.00
2019-03-03T11:15:59.518Z,1984.00
2019-03-03T11:16:59.584Z,2016.00
2019-03-03T11:17:59.708Z,2036.00
2019-03-03T11:18:59.663Z,1924.00
2019-03-03T11:19:59.803Z,1872.00
2019-03-03T11:20:59.960Z,1772.00
2019-03-03T11:22:00.011Z,1876.00
2019-03-03T11:23:00.096Z,1860.00
2019-03-03T11:24:00.169Z,1704.00
2019-03-03T11:25:00.405Z,1580.00
2019-03-03T11:26:00.324Z,1548.00
2019-03-03T11:27:00.443Z,1568.00
2019-03-03T11:28:00.536Z,1636.00
2019-03-03T11:29:00.543Z,1584.00
2019-03-03T11:30:00.705Z,1576.00
2019-03-03T11:31:00.786Z,1580.00
2019-03-03T11:32:00.898Z,1616.00
2019-03-03T11:33:00.884Z,1604.00
2019-03-03T11:34:01.006Z,1580.00
2019-03-03T11:35:01.093Z,1568.00
2019-03-03T11:36:01.273Z,1532.00
2019-03-03T11:37:01.354Z,1544.00
2019-03-03T11:38:01.398Z,1472.00
2019-03-03T11:39:01.484Z,1596.00
2019-03-03T11:40:01.582Z,1476.00
2019-03-03T11:41:01.693Z,1400.00
2019-03-03T11:42:01.747Z,1428.00
2019-03-03T11:43:01.943Z,1444.00
2019-03-03T11:44:01.889Z,1464.00
2019-03-03T11:45:02.039Z,1440.00
2019-03-03T11:46:04.104Z,1480.00
2019-03-03T11:47:02.233Z,1488.00
2019-03-03T11:48:04.426Z,1436.00
2019-03-03T11:49:02.393Z,1380.00
2019-03-03T11:50:02.507Z,1448.00
2019-03-03T11:51:02.620Z,1388.00
2019-03-03T11:52:02.677Z,1268.00
2019-03-03T11:53:02.742Z,1200.00
2019-03-03T11:54:02.899Z,1272.00
2019-03-03T11:55:02.962Z,1272.00
2019-03-03T11:56:03.009Z,1248.00
2019-03-03T11:57:03.149Z,1268.00
2019-03-03T11:58:03.263Z,1352.00
2019-03-03T11:59:03.814Z,1292.00
2019-03-03T12:00:03.852Z,1344.00
2019-03-03T12:01:03.428Z,1420.00
2019-03-03T12:02:03.498Z,1448.00
2019-03-03T12:03:03.679Z,1476.00
2019-03-03T12:04:03.649Z,1456.00
2019-03-03T12:05:03.741Z,1580.00
2019-03-03T12:06:03.989Z,1604.00
2019-03-03T12:07:03.988Z,1472.00
2019-03-03T12:08:04.036Z,1408.00
2019-03-03T12:09:04.092Z,1380.00
2019-03-03T12:10:04.201Z,1424.00
2019-03-03T12:11:04.237Z,1464.00
2019-03-03T12:12:04.418Z,1428.00
2019-03-03T12:13:04.399Z,1464.00
2019-03-03T12:14:04.519Z,1448.00
2019-03-03T12:15:04.665Z,1300.00
2019-03-03T12:16:04.709Z,1284.00
2019-03-03T12:17:04.825Z,1264.00
2019-03-03T12:18:04.894Z,1156.00
2019-03-03T12:19:04.915Z,1148.00
2019-03-03T12:20:05.047Z,1124.00
2019-03-03T12:21:05.126Z,1048.00
2019-03-03T12:22:05.258Z,992.00
2019-03-03T12:23:05.311Z,984.00
2019-03-03T12:24:05.388Z,932.00
2019-03-03T12:25:05.483Z,916.00
2019-03-03T12:26:05.563Z,868.00
2019-03-03T12:27:05.598Z,868.00
2019-03-03T12:28:05.736Z,864.00
2019-03-03T12:29:05.824Z,880.00
2019-03-03T12:30:05.921Z,936.00
2019-03-03T12:31:06.071Z,968.00
2019-03-03T12:32:06.033Z,992.00
2019-03-03T12:33:06.209Z,960.00
2019-03-03T12:34:06.343Z,952.00
2019-03-03T12:35:06.424Z,960.00
2019-03-03T12:36:06.424Z,980.00
2019-03-03T12:37:06.561Z,1052.00
2019-03-03T12:38:06.670Z,1152.00
2019-03-03T12:39:06.715Z,1232.00
2019-03-03T12:40:06.826Z,1220.00
2019-03-03T12:41:06.898Z,1220.00
2019-03-03T12:42:06.976Z,1212.00
2019-03-03T12:43:07.082Z,1116.00
2019-03-03T12:44:07.195Z,1088.00
2019-03-03T12:45:07.244Z,1096.00
2019-03-03T12:46:07.364Z,1088.00
2019-03-03T12:47:07.439Z,1112.00
2019-03-03T12:48:07.494Z,1104.00
2019-03-03T12:49:07.583Z,1112.00
2019-03-03T12:50:07.667Z,1152.00
2019-03-03T12:51:07.841Z,1188.00
2019-03-03T12:52:07.916Z,1184.00
2019-03-03T12:53:08.091Z,1144.00
2019-03-03T12:54:08.018Z,1128.00
2019-03-03T12:55:08.069Z,1172.00